createdAt,value
2019-03-04T00:01:24.959Z,75.10
2019-03-04T00:03:53.167Z,75.40
2019-03-04T00:06:21.429Z,75.20
2019-03-04T00:08:49.664Z,75.10
2019-03-04T00:11:17.952Z,75.40
2019-03-04T00:13:46.183Z,75.40
2019-03-04T00:16:14.425Z,75.40
2019-03-04T00:18:42.679Z,74.90
2019-03-04T00:21:10.964Z,75.10
2019-03-04T00:23:39.202Z,75.20
2019-03-04T00:26:07.438Z,75.10
2019-03-04T00:28:35.662Z,75.00
2019-03-04T00:31:03.923Z,74.90
2019-03-04T00:33:32.232Z,74.90
2019-03-04T00:36:00.526Z,75.00
2019-03-04T00:38:28.767Z,75.40
2019-03-04T00:40:57.055Z,75.10
2019-03-04T00:43:25.372Z,75.00
2019-03-04T00:45:53.615Z,75.20
2019-03-04T00:48:21.859Z,75.30
2019-03-04T00:50:50.086Z,75.50
2019-03-04T00:53:18.331Z,75.30
2019-03-04T00:55:46.592Z,75.50
2019-03-04T00:58:14.836Z,75.30
2019-03-04T01:00:43.077Z,75.20
2019-03-04T01:03:11.317Z,75.00
2019-03-04T01:05:39.543Z,75.10
2019-03-04T01:08:07.776Z,75.00
2019-03-04T01:10:36.004Z,74.70
2019-03-04T01:13:04.252Z,74.80
2019-03-04T01:15:32.600Z,75.10
2019-03-04T01:18:00.850Z,74.80
2019-03-04T01:20:29.074Z,75.10
2019-03-04T01:22:57.338Z,74.60
2019-03-04T01:25:25.847Z,74.30
2019-03-04T01:27:54.126Z,73.80
2019-03-04T01:30:24.003Z,73.70
2019-03-04T01:32:53.887Z,73.60
2019-03-04T01:35:22.119Z,74.00
2019-03-04T01:37:50.396Z,73.90
2019-03-04T01:40:20.463Z,74.10
2019-03-04T01:42:48.699Z,74.10
2019-03-04T01:45:17.866Z,74.00
2019-03-04T01:47:46.137Z,74.30
2019-03-04T01:50:33.826Z,74.50
2019-03-04T01:53:02.154Z,75.90
2019-03-04T01:55:30.424Z,75.50
2019-03-04T01:57:58.667Z,75.50
2019-03-04T02:00:27.088Z,75.30
2019-03-04T02:02:56.242Z,75.50
2019-03-04T02:05:24.465Z,75.90
2019-03-04T02:07:52.708Z,75.90
2019-03-04T02:10:20.967Z,76.20
2019-03-04T02:12:49.254Z,76.50
2019-03-04T02:15:19.072Z,76.90
2019-03-04T02:17:47.344Z,77.10
2019-03-04T02:20:17.032Z,77.00
2019-03-04T02:22:45.543Z,77.00
2019-03-04T02:25:15.645Z,76.90
2019-03-04T02:27:46.415Z,76.90
2019-03-04T02:30:21.030Z,77.00
2019-03-04T02:32:49.271Z,76.70
2019-03-04T02:35:17.502Z,76.50
2019-03-04T02:37:45.719Z,76.50
2019-03-04T02:40:14.025Z,76.40
2019-03-04T02:42:42.242Z,76.20
2019-03-04T02:45:19.031Z,75.80
2019-03-04T02:47:47.624Z,76.30
2019-03-04T02:50:16.284Z,75.30
2019-03-04T02:52:44.671Z,74.50
2019-03-04T02:55:14.177Z,74.50
2019-03-04T02:57:42.409Z,73.90
2019-03-04T03:00:18.560Z,73.30
2019-03-04T03:02:46.833Z,73.20
2019-03-04T03:05:15.063Z,72.70
2019-03-04T03:07:43.294Z,71.70
2019-03-04T03:10:14.865Z,72.40
2019-03-04T03:12:43.094Z,71.60
2019-03-04T03:15:12.688Z,70.90
2019-03-04T03:17:40.972Z,69.70
2019-03-04T03:20:11.462Z,69.20
2019-03-04T03:22:39.745Z,68.20
2019-03-04T03:25:12.132Z,67.70
2019-03-04T03:27:40.355Z,67.00
2019-03-04T03:30:16.545Z,66.60
2019-03-04T03:36:25.424Z,66.00
2019-03-04T03:38:53.698Z,65.80
2019-03-04T03:41:21.946Z,66.30
2019-03-04T03:43:50.190Z,66.30
2019-03-04T03:46:18.438Z,67.00
2019-03-04T03:48:46.667Z,67.60
2019-03-04T03:51:14.925Z,69.00
2019-03-04T03:53:43.216Z,68.00
2019-03-04T03:56:11.473Z,68.00
2019-03-04T03:58:39.703Z,68.20
2019-03-04T04:01:12.266Z,68.40
2019-03-04T04:03:40.493Z,67.70
2019-03-04T04:06:08.730Z,68.60
2019-03-04T04:08:36.964Z,68.70
2019-03-04T04:11:05.197Z,68.70
2019-03-04T04:13:33.436Z,67.70
2019-03-04T04:16:01.718Z,66.90
2019-03-04T04:18:30.004Z,66.60
2019-03-04T04:20:58.320Z,66.20
2019-03-04T04:23:26.568Z,65.60
2019-03-04T04:25:54.827Z,64.80
2019-03-04T04:28:23.093Z,64.90
2019-03-04T04:30:51.313Z,64.80
2019-03-04T04:33:19.553Z,64.80
2019-03-04T04:35:47.811Z,64.40
2019-03-04T04:38:16.044Z,64.00
2019-03-04T04:40:44.289Z,64.70
2019-03-04T04:43:12.568Z,64.60
2019-03-04T04:45:40.799Z,64.50
2019-03-04T04:48:09.039Z,64.70
2019-03-04T04:50:37.271Z,64.60
2019-03-04T04:53:05.536Z,64.70
2019-03-04T04:55:33.789Z,64.20
2019-03-04T04:58:02.042Z,64.00
2019-03-04T05:00:31.304Z,63.70
2019-03-04T05:02:59.677Z,64.70
2019-03-04T05:05:27.949Z,64.10
2019-03-04T05:07:56.233Z,63.80
2019-03-04T05:10:24.745Z,63.70
2019-03-04T05:12:52.982Z,63.50
2019-03-04T05:15:21.263Z,63.30
2019-03-04T05:17:49.503Z,64.60
2019-03-04T05:20:22.623Z,63.80
2019-03-04T05:22:50.931Z,63.80
2019-03-04T05:25:19.192Z,63.60
2019-03-04T05:27:47.460Z,63.50
2019-03-04T05:30:23.117Z,63.20
2019-03-04T05:32:51.368Z,63.00
2019-03-04T05:35:19.590Z,63.60
2019-03-04T05:37:47.836Z,63.70
2019-03-04T05:40:20.742Z,63.90
2019-03-04T05:42:48.978Z,64.40
2019-03-04T05:45:18.055Z,65.90
2019-03-04T05:47:46.387Z,65.50
2019-03-04T05:50:22.227Z,67.00
2019-03-04T05:52:50.469Z,70.70
2019-03-04T05:55:18.719Z,75.60
2019-03-04T05:57:46.955Z,78.30
2019-03-04T06:00:21.862Z,84.30
2019-03-04T06:02:51.538Z,89.30
2019-03-04T06:05:20.031Z,91.20
2019-03-04T06:07:52.592Z,92.50
2019-03-04T06:10:20.851Z,93.10
2019-03-04T06:12:49.081Z,93.20
2019-03-04T06:15:19.113Z,93.80
2019-03-04T06:17:47.395Z,94.00
2019-03-04T06:20:17.585Z,94.00
2019-03-04T06:22:45.810Z,93.30
2019-03-04T06:25:19.057Z,93.30
2019-03-04T06:27:47.262Z,93.70
2019-03-04T06:30:17.785Z,94.60
2019-03-04T06:32:46.002Z,94.40
2019-03-04T06:35:14.619Z,92.50
2019-03-04T06:37:42.839Z,92.20
2019-03-04T06:40:18.595Z,92.30
2019-03-04T06:42:46.802Z,91.50
2019-03-04T06:45:16.280Z,91.20
2019-03-04T06:47:44.564Z,91.80
2019-03-04T06:50:38.623Z,91.80
2019-03-04T06:53:06.850Z,91.30
2019-03-04T06:55:47.178Z,91.30
2019-03-04T06:58:15.393Z,91.90
2019-03-04T07:00:46.899Z,91.90
2019-03-04T07:03:15.467Z,92.10
2019-03-04T07:05:45.937Z,92.10
2019-03-04T07:08:35.397Z,91.60
2019-03-04T07:11:03.704Z,91.80
2019-03-04T07:13:31.946Z,91.10
2019-03-04T07:16:00.174Z,91.20
2019-03-04T07:18:28.395Z,90.80
2019-03-04T07:20:56.654Z,90.60
2019-03-04T07:23:24.883Z,90.50
2019-03-04T07:25:53.132Z,90.40
2019-03-04T07:28:21.383Z,90.40
2019-03-04T07:30:49.635Z,89.70
2019-03-04T07:33:17.852Z,89.40
2019-03-04T07:35:46.184Z,86.40
2019-03-04T07:38:23.569Z,83.70
2019-03-04T07:40:51.823Z,84.80
2019-03-04T07:43:20.059Z,83.60
2019-03-04T07:45:48.310Z,84.90
2019-03-04T07:48:17.481Z,82.70
2019-03-04T07:50:45.748Z,81.40
2019-03-04T07:53:14.371Z,81.60
2019-03-04T07:55:42.778Z,79.20
2019-03-04T07:58:11.076Z,78.00
2019-03-04T08:00:39.333Z,78.20
2019-03-04T08:03:07.624Z,78.20
2019-03-04T08:05:35.844Z,77.20
2019-03-04T08:08:09.245Z,76.70
2019-03-04T08:10:49.477Z,75.00
2019-03-04T08:13:38.759Z,74.10
2019-03-04T08:16:08.449Z,74.40
2019-03-04T08:18:36.691Z,74.90
2019-03-04T08:21:04.937Z,75.20
2019-03-04T08:23:33.175Z,72.70
2019-03-04T08:26:01.388Z,68.90
2019-03-04T08:28:29.637Z,63.70
2019-03-04T08:30:57.871Z,61.80
2019-03-04T08:33:26.138Z,61.50
2019-03-04T08:35:54.435Z,59.80
2019-03-04T08:38:22.700Z,58.80
2019-03-04T08:40:50.974Z,59.80
2019-03-04T08:43:19.231Z,57.70
2019-03-04T08:45:47.459Z,58.80
2019-03-04T08:48:15.719Z,59.70
2019-03-04T08:50:43.943Z,61.30
2019-03-04T08:53:12.187Z,62.30
2019-03-04T08:55:40.410Z,62.80
2019-03-04T08:58:08.668Z,63.60
2019-03-04T09:00:36.906Z,63.80
2019-03-04T09:03:05.162Z,64.00
2019-03-04T09:05:33.374Z,64.40
2019-03-04T09:08:01.616Z,64.80
2019-03-04T09:10:32.685Z,65.70
2019-03-04T09:13:00.934Z,65.80
2019-03-04T09:15:29.158Z,65.80
2019-03-04T09:17:57.471Z,65.00
2019-03-04T09:20:25.712Z,66.10
2019-03-04T09:22:54.706Z,67.20
2019-03-04T09:25:30.562Z,70.20
2019-03-04T09:27:55.733Z,72.80
2019-03-04T09:30:23.954Z,73.50
2019-03-04T09:32:52.191Z,74.80
2019-03-04T09:35:20.600Z,76.30
2019-03-04T09:37:48.901Z,77.90
2019-03-04T09:40:21.568Z,77.70
2019-03-04T09:42:51.161Z,78.80
2019-03-04T09:45:19.411Z,78.10
2019-03-04T09:47:47.645Z,78.60
2019-03-04T09:50:20.043Z,78.60
2019-03-04T09:52:48.299Z,77.60
2019-03-04T09:55:17.246Z,78.60
2019-03-04T09:57:45.819Z,77.90
2019-03-04T10:00:44.283Z,79.10
2019-03-04T10:03:21.313Z,78.40
2019-03-04T10:06:04.811Z,77.30
2019-03-04T10:08:48.008Z,77.30
2019-03-04T10:11:28.151Z,79.60
2019-03-04T10:14:02.469Z,79.50
2019-03-04T10:16:45.699Z,79.10
2019-03-04T10:19:25.772Z,78.00
2019-03-04T10:22:30.746Z,78.20
2019-03-04T10:25:14.070Z,78.10
2019-03-04T10:28:03.638Z,79.80
2019-03-04T10:30:55.921Z,81.00
2019-03-04T10:33:33.068Z,80.60
2019-03-04T10:36:22.515Z,81.20
2019-03-04T10:39:25.493Z,79.80
2019-03-04T10:42:14.505Z,79.10
2019-03-04T10:45:00.860Z,77.80
2019-03-04T10:47:29.120Z,76.60
2019-03-04T10:49:57.351Z,75.30
2019-03-04T10:52:25.614Z,74.50
2019-03-04T10:54:53.880Z,74.90
2019-03-04T10:57:22.130Z,76.20
2019-03-04T10:59:50.387Z,81.20
2019-03-04T11:02:18.645Z,81.20
2019-03-04T11:04:46.878Z,87.70
2019-03-04T11:07:15.118Z,91.20
2019-03-04T11:09:43.405Z,92.40
2019-03-04T11:12:14.093Z,93.40
2019-03-04T11:14:42.074Z,94.00
2019-03-04T11:17:10.339Z,94.20
2019-03-04T11:19:38.639Z,94.40
2019-03-04T11:22:06.999Z,94.20
2019-03-04T11:24:35.256Z,94.50
2019-03-04T11:27:03.518Z,95.20
2019-03-04T11:29:31.732Z,95.10
2019-03-04T11:31:59.995Z,94.90
2019-03-04T11:34:28.226Z,95.10
2019-03-04T11:36:56.467Z,94.50
2019-03-04T11:39:26.721Z,94.80
2019-03-04T11:41:55.063Z,95.00
2019-03-04T11:44:23.283Z,94.10
2019-03-04T11:46:51.538Z,94.20
2019-03-04T11:49:19.770Z,93.30
2019-03-04T11:51:48.009Z,92.50
2019-03-04T11:54:16.245Z,91.70
2019-03-04T11:56:44.468Z,90.60
2019-03-04T11:59:12.702Z,91.30
2019-03-04T12:01:45.276Z,90.50
2019-03-04T12:04:13.514Z,91.30
2019-03-04T12:06:43.232Z,91.10
2019-03-04T12:09:13.359Z,90.90
2019-03-04T12:11:41.595Z,90.50
2019-03-04T12:14:09.844Z,91.20
2019-03-04T12:16:38.080Z,90.50
2019-03-04T12:19:06.339Z,90.40
2019-03-04T12:21:34.632Z,90.10
2019-03-04T12:24:02.878Z,90.30
2019-03-04T12:26:31.318Z,90.00
2019-03-04T12:28:59.584Z,90.60
2019-03-04T12:31:29.445Z,90.30
2019-03-04T12:33:57.671Z,90.20
2019-03-04T12:36:25.894Z,88.10
2019-03-04T12:38:54.138Z,87.60
2019-03-04T12:41:22.357Z,83.70
2019-03-04T12:43:50.604Z,84.80
2019-03-04T12:46:18.814Z,80.80
2019-03-04T12:48:47.050Z,78.60
2019-03-04T12:51:22.698Z,77.30
2019-03-04T12:53:45.261Z,76.70
2019-03-04T12:56:13.495Z,74.60
2019-03-04T12:58:41.737Z,75.30
2019-03-04T13:01:09.977Z,77.20
2019-03-04T13:03:38.239Z,78.10
2019-03-04T13:06:06.579Z,80.60
2019-03-04T13:08:34.892Z,79.60
2019-03-04T13:11:03.139Z,80.20
2019-03-04T13:13:31.362Z,81.50
2019-03-04T13:16:01.629Z,82.20
2019-03-04T13:18:29.871Z,81.80
2019-03-04T13:20:58.082Z,82.00
2019-03-04T13:23:26.323Z,82.00
2019-03-04T13:25:54.540Z,80.40
2019-03-04T13:28:22.780Z,78.50
2019-03-04T13:30:51.062Z,77.80
2019-03-04T13:33:19.359Z,77.90
2019-03-04T13:35:47.575Z,75.40
2019-03-04T13:38:15.825Z,75.10
2019-03-04T13:40:44.058Z,75.00
2019-03-04T13:43:12.299Z,74.20
2019-03-04T13:45:40.563Z,73.80
2019-03-04T13:48:08.790Z,73.10
2019-03-04T13:50:37.535Z,72.60
2019-03-04T13:53:05.772Z,72.40
2019-03-04T13:55:34.019Z,72.80
2019-03-04T13:58:02.266Z,72.00
2019-03-04T14:00:38.497Z,71.90
2019-03-04T14:03:07.518Z,70.50
2019-03-04T14:05:35.770Z,70.60
2019-03-04T14:08:04.077Z,71.20
2019-03-04T14:10:40.286Z,71.00
2019-03-04T14:13:08.513Z,68.90
2019-03-04T14:15:39.399Z,69.80
2019-03-04T14:18:07.701Z,69.40
2019-03-04T14:20:35.930Z,68.70
2019-03-04T14:23:04.268Z,64.90
2019-03-04T14:25:32.522Z,63.90
2019-03-04T14:28:00.761Z,63.30
2019-03-04T14:30:28.997Z,61.20
2019-03-04T14:32:57.248Z,61.50
2019-03-04T14:35:25.492Z,61.60
2019-03-04T14:37:53.751Z,62.40
2019-03-04T14:40:23.165Z,61.50
2019-03-04T14:42:51.434Z,60.30
2019-03-04T14:45:20.707Z,61.80
2019-03-04T14:47:48.941Z,61.70
2019-03-04T14:50:18.247Z,61.10
2019-03-04T14:52:46.492Z,61.10
2019-03-04T14:55:23.284Z,61.60
2019-03-04T14:57:51.534Z,61.00
2019-03-04T15:00:34.920Z,60.40
2019-03-04T15:03:03.182Z,60.20
2019-03-04T15:05:31.432Z,59.80
2019-03-04T15:07:59.652Z,62.30
2019-03-04T15:10:27.895Z,61.20
2019-03-04T15:12:56.120Z,62.50
2019-03-04T15:15:26.120Z,61.70
2019-03-04T15:17:54.370Z,60.20
2019-03-04T15:20:24.247Z,60.60
2019-03-04T15:22:52.506Z,58.80
2019-03-04T15:25:24.118Z,58.70
2019-03-04T15:27:52.369Z,59.90
2019-03-04T15:30:20.641Z,58.70
2019-03-04T15:32:48.910Z,59.10
2019-03-04T15:35:17.120Z,59.10
2019-03-04T15:37:45.384Z,59.20
2019-03-04T15:40:14.814Z,59.00
2019-03-04T15:42:43.051Z,60.10
2019-03-04T15:45:13.105Z,60.70
2019-03-04T15:47:42.466Z,60.30
2019-03-04T15:50:13.431Z,60.70
2019-03-04T15:52:41.689Z,59.90
2019-03-04T15:55:12.604Z,60.60
2019-03-04T15:57:40.830Z,60.00
2019-03-04T16:00:12.357Z,60.80
2019-03-04T16:02:39.873Z,60.50
2019-03-04T16:05:11.312Z,61.20
2019-03-04T16:07:39.547Z,60.80
2019-03-04T16:10:20.099Z,60.80
2019-03-04T16:12:48.350Z,59.80
2019-03-04T16:15:18.896Z,60.00
2019-03-04T16:17:47.143Z,61.10
2019-03-04T16:20:22.795Z,59.70
2019-03-04T16:22:53.453Z,60.40
2019-03-04T16:25:21.783Z,59.10
2019-03-04T16:27:50.007Z,59.80
2019-03-04T16:30:23.031Z,59.20
2019-03-04T16:32:51.255Z,59.30
2019-03-04T16:35:19.669Z,59.80
2019-03-04T16:37:47.922Z,60.00
2019-03-04T16:40:18.573Z,60.50
2019-03-04T16:42:46.862Z,61.20
2019-03-04T16:45:22.837Z,61.60
2019-03-04T16:47:51.101Z,62.40
2019-03-04T16:50:22.060Z,62.20
2019-03-04T16:52:52.776Z,62.90
2019-03-04T16:55:20.350Z,64.20
2019-03-04T16:57:49.047Z,64.90
2019-03-04T17:00:20.094Z,64.80
2019-03-04T17:02:49.716Z,65.50
2019-03-04T17:05:18.809Z,66.60
2019-03-04T17:07:47.707Z,66.80
2019-03-04T17:10:19.270Z,67.30
2019-03-04T17:12:47.487Z,67.60
2019-03-04T17:15:20.691Z,67.60
2019-03-04T17:17:49.262Z,68.00
2019-03-04T17:20:19.159Z,68.90
2019-03-04T17:22:47.416Z,69.00
2019-03-04T17:25:22.889Z,69.30
2019-03-04T17:27:51.127Z,69.90
2019-03-04T17:30:23.692Z,69.70
2019-03-04T17:32:51.922Z,70.50
2019-03-04T17:35:21.222Z,70.10
2019-03-04T17:37:49.447Z,70.10
2019-03-04T17:40:19.918Z,69.60
2019-03-04T17:42:48.210Z,69.00
2019-03-04T17:45:18.327Z,68.60
2019-03-04T17:47:46.634Z,68.20
2019-03-04T17:50:31.125Z,68.30
2019-03-04T17:52:59.537Z,68.40
2019-03-04T17:55:27.888Z,68.60
2019-03-04T17:57:56.110Z,69.00
2019-03-04T18:00:24.386Z,69.40
2019-03-04T18:02:53.131Z,69.50
2019-03-04T18:05:21.356Z,69.40
2019-03-04T18:07:49.627Z,69.80
2019-03-04T18:10:18.330Z,70.20
2019-03-04T18:12:46.634Z,69.90
2019-03-04T18:15:29.352Z,70.40
2019-03-04T18:17:57.616Z,70.50
2019-03-04T18:20:34.066Z,70.60
2019-03-04T18:22:55.840Z,70.30
2019-03-04T18:25:33.367Z,70.10
2019-03-04T18:28:27.355Z,70.70
2019-03-04T18:31:10.764Z,70.90
2019-03-04T18:34:01.740Z,71.40
2019-03-04T18:36:51.194Z,70.80
2019-03-04T18:39:42.083Z,71.70
2019-03-04T18:42:34.113Z,72.20
2019-03-04T18:45:26.670Z,72.30
2019-03-04T18:48:15.212Z,72.50
2019-03-04T18:50:43.493Z,73.40
2019-03-04T18:53:11.791Z,73.10
2019-03-04T18:55:40.040Z,72.90
2019-03-04T18:58:09.561Z,72.80
2019-03-04T19:00:40.042Z,72.90
2019-03-04T19:03:08.307Z,72.20
2019-03-04T19:05:36.583Z,73.20
2019-03-04T19:08:04.837Z,72.60
2019-03-04T19:10:33.111Z,73.40
2019-03-04T19:13:01.334Z,73.40
2019-03-04T19:15:29.630Z,73.00
2019-03-04T19:17:58.174Z,73.10
2019-03-04T19:20:26.399Z,73.70
2019-03-04T19:22:54.685Z,73.80
2019-03-04T19:25:22.971Z,73.80
2019-03-04T19:27:51.240Z,74.50
2019-03-04T19:30:19.471Z,74.30
2019-03-04T19:32:47.695Z,74.60
2019-03-04T19:35:15.953Z,75.90
2019-03-04T19:37:44.175Z,75.00
2019-03-04T19:40:15.321Z,75.90
2019-03-04T19:42:43.540Z,75.30
2019-03-04T19:45:19.145Z,75.50
2019-03-04T19:47:47.414Z,75.80
2019-03-04T19:50:15.670Z,75.80
2019-03-04T19:52:43.887Z,76.10
2019-03-04T19:55:15.373Z,76.10
2019-03-04T19:57:42.919Z,76.50
2019-03-04T20:00:18.090Z,76.70
2019-03-04T20:02:46.333Z,76.60
2019-03-04T20:05:14.571Z,77.10
2019-03-04T20:07:43.895Z,77.10
2019-03-04T20:10:13.518Z,77.30
2019-03-04T20:12:41.752Z,77.60
2019-03-04T20:15:24.693Z,77.30
2019-03-04T20:17:52.926Z,76.90
2019-03-04T20:20:21.158Z,77.00
2019-03-04T20:22:49.396Z,76.80
2019-03-04T20:25:18.260Z,76.30
2019-03-04T20:27:46.492Z,76.40
2019-03-04T20:30:16.928Z,76.10
2019-03-04T20:32:45.528Z,76.50
2019-03-04T20:35:14.932Z,78.50
2019-03-04T20:37:46.552Z,80.30
2019-03-04T20:40:15.181Z,81.00
2019-03-04T20:42:43.392Z,81.10
2019-03-04T20:45:13.600Z,80.70
2019-03-04T20:47:41.865Z,81.10
2019-03-04T20:50:18.846Z,81.90
2019-03-04T20:52:47.092Z,82.70
2019-03-04T20:55:15.335Z,83.90
2019-03-04T20:57:43.563Z,85.50
2019-03-04T21:00:27.606Z,88.70
2019-03-04T21:03:03.546Z,90.10
2019-03-04T21:05:31.912Z,91.10
2019-03-04T21:08:00.630Z,91.30
2019-03-04T21:10:28.921Z,92.00
2019-03-04T21:12:58.836Z,92.40
2019-03-04T21:15:27.348Z,93.30
2019-03-04T21:17:55.590Z,93.50
2019-03-04T21:20:23.834Z,93.50
2019-03-04T21:22:52.069Z,94.10
2019-03-04T21:25:38.710Z,94.20
2019-03-04T21:28:15.969Z,94.40
2019-03-04T21:30:59.245Z,94.80
2019-03-04T21:33:47.154Z,95.30
2019-03-04T21:36:34.806Z,94.70
2019-03-04T21:39:04.696Z,94.50
2019-03-04T21:41:37.115Z,95.70
2019-03-04T21:44:08.628Z,95.30
2019-03-04T21:46:40.107Z,95.20
2019-03-04T21:49:09.602Z,95.20
2019-03-04T21:51:53.349Z,95.50
2019-03-04T21:54:21.560Z,95.50
2019-03-04T21:56:56.043Z,95.40
2019-03-04T21:59:24.269Z,95.90
2019-03-04T22:02:15.202Z,95.80
2019-03-04T22:04:43.435Z,95.30
2019-03-04T22:07:12.061Z,95.50
2019-03-04T22:09:40.355Z,95.10
2019-03-04T22:12:13.352Z,95.10
2019-03-04T22:14:41.664Z,95.50
2019-03-04T22:17:09.967Z,95.00
2019-03-04T22:19:38.207Z,94.90
2019-03-04T22:22:06.508Z,95.00
2019-03-04T22:24:34.743Z,95.20
2019-03-04T22:27:03.028Z,94.50
2019-03-04T22:29:31.262Z,94.60
2019-03-04T22:31:59.507Z,93.90
2019-03-04T22:34:27.751Z,93.70
2019-03-04T22:36:55.988Z,93.80
2019-03-04T22:39:24.202Z,93.00
2019-03-04T22:41:52.429Z,92.90
2019-03-04T22:44:20.674Z,92.50
2019-03-04T22:46:48.895Z,92.60
2019-03-04T22:49:17.149Z,92.40
2019-03-04T22:51:45.371Z,92.10
2019-03-04T22:54:13.646Z,92.10
2019-03-04T22:56:41.870Z,91.70
2019-03-04T22:59:10.104Z,91.60
2019-03-04T23:01:41.135Z,91.90
2019-03-04T23:04:17.801Z,91.60
2019-03-04T23:06:54.962Z,91.70
2019-03-04T23:09:26.682Z,91.40
2019-03-04T23:12:19.427Z,91.40
2019-03-04T23:14:48.500Z,91.70
2019-03-04T23:17:16.841Z,91.40
2019-03-04T23:19:45.065Z,91.10
2019-03-04T23:22:13.292Z,91.30
2019-03-04T23:24:41.523Z,91.70
2019-03-04T23:27:10.402Z,91.30
2019-03-04T23:29:38.619Z,91.50
2019-03-04T23:32:06.856Z,91.00
2019-03-04T23:34:35.091Z,90.40
2019-03-04T23:37:03.324Z,90.50
2019-03-04T23:39:31.555Z,90.10
2019-03-04T23:41:59.784Z,89.60
2019-03-04T23:44:28.023Z,89.20
2019-03-04T23:46:56.260Z,89.10
2019-03-04T23:49:24.472Z,89.00
2019-03-04T23:51:52.695Z,89.00
2019-03-04T23:54:20.928Z,87.90
2019-03-04T23:56:49.147Z,88.40
2019-03-04T23:59:17.384Z,88.20
